Time;durP1;ratioP1;P1;durP2;ratioP2;P2;SDS_P1;SDS_P2;PMS_P1;PMS_P2;Temp;Humidity;BMP_temperature;BMP_pressure;BME280_temperature;BME280_humidity;BME280_pressure;Samples;Min_cycle;Max_cycle;Signal;HPM_P1;HPM_P2
2023/04/11 00:02:16;;;;;;;31.63;5.95;;;9.70;84.50;;;;;;5027801;28;20065;-76
2023/04/11 00:04:42;;;;;;;28.85;5.70;;;9.70;84.30;;;;;;5021978;28;20477;-75
2023/04/11 00:07:08;;;;;;;27.25;6.35;;;9.70;84.30;;;;;;5026129;28;20045;-76
2023/04/11 00:09:34;;;;;;;33.78;6.20;;;9.60;84.50;;;;;;5021299;28;20369;-75
2023/04/11 00:12:03;;;;;;;32.92;6.85;;;9.60;84.60;;;;;;5020436;28;20036;-75
2023/04/11 00:14:32;;;;;;;26.52;6.43;;;9.60;84.80;;;;;;5022333;28;20470;-75
2023/04/11 00:17:00;;;;;;;30.35;5.75;;;9.60;84.50;;;;;;5023705;28;20060;-76
2023/04/11 00:19:27;;;;;;;26.15;5.20;;;9.60;84.60;;;;;;5023667;28;20492;-76
2023/04/11 00:21:57;;;;;;;35.00;6.53;;;9.60;84.50;;;;;;5020962;28;20040;-77
2023/04/11 00:24:23;;;;;;;31.67;6.25;;;9.60;84.40;;;;;;5024694;28;20500;-75
2023/04/11 00:26:49;;;;;;;34.42;7.03;;;9.60;84.40;;;;;;5021828;28;20047;-75
2023/04/11 00:29:15;;;;;;;33.25;6.57;;;9.60;84.60;;;;;;5031781;28;20033;-77
2023/04/11 00:31:41;;;;;;;24.38;5.70;;;9.60;84.80;;;;;;5022723;28;20041;-76
2023/04/11 00:34:06;;;;;;;32.13;6.25;;;9.50;84.60;;;;;;5023646;28;20037;-75
2023/04/11 00:36:32;;;;;;;38.17;6.63;;;9.60;84.60;;;;;;5027228;28;20033;-75
2023/04/11 00:39:00;;;;;;;32.13;6.00;;;9.50;84.50;;;;;;5027969;28;20025;-75
2023/04/11 00:41:26;;;;;;;26.65;5.70;;;9.50;84.60;;;;;;5031377;28;20092;-75
2023/04/11 00:43:53;;;;;;;34.35;7.45;;;9.50;84.60;;;;;;5039414;28;20045;-75
2023/04/11 00:46:20;;;;;;;31.58;9.00;;;9.40;84.90;;;;;;5023925;28;20046;-76
2023/04/11 00:48:46;;;;;;;30.90;6.13;;;9.40;85.00;;;;;;5038907;28;20110;-75
2023/04/11 00:51:13;;;;;;;32.05;6.47;;;9.40;85.00;;;;;;5014165;28;20526;-75
2023/04/11 00:53:40;;;;;;;34.97;5.97;;;9.40;85.00;;;;;;5025900;28;20034;-76
2023/04/11 00:56:07;;;;;;;31.65;5.38;;;9.40;85.10;;;;;;5024105;28;20037;-76
2023/04/11 00:58:33;;;;;;;31.38;6.70;;;9.40;85.10;;;;;;5027500;28;20176;-76
2023/04/11 01:00:59;;;;;;;24.08;5.72;;;9.40;85.10;;;;;;5029731;28;20040;-76
2023/04/11 01:03:25;;;;;;;34.53;5.85;;;9.30;85.30;;;;;;5030167;28;20466;-75
2023/04/11 01:05:52;;;;;;;37.17;7.32;;;9.40;85.10;;;;;;5025140;28;20022;-75
2023/04/11 01:08:19;;;;;;;29.58;5.57;;;9.30;85.10;;;;;;5025159;28;20171;-75
2023/04/11 01:10:45;;;;;;;35.42;6.43;;;9.20;85.20;;;;;;5027824;28;20616;-76
2023/04/11 01:13:11;;;;;;;29.17;6.15;;;9.20;85.40;;;;;;5031985;28;20109;-75
2023/04/11 01:15:37;;;;;;;26.13;6.28;;;9.20;85.30;;;;;;5023313;28;20032;-76
2023/04/11 01:18:04;;;;;;;28.52;6.47;;;9.20;85.20;;;;;;5027566;28;20101;-75
2023/04/11 01:20:32;;;;;;;24.75;5.43;;;9.20;84.90;;;;;;5024529;28;20018;-74
2023/04/11 01:23:00;;;;;;;32.58;6.47;;;9.10;85.20;;;;;;5030785;28;20037;-75
2023/04/11 01:25:26;;;;;;;25.00;5.40;;;9.10;85.20;;;;;;5027703;28;20061;-75
2023/04/11 01:27:52;;;;;;;27.73;5.70;;;9.10;85.00;;;;;;5029635;28;20057;-75
2023/04/11 01:30:17;;;;;;;27.52;6.00;;;9.10;85.00;;;;;;5034065;28;20080;-76
2023/04/11 01:32:43;;;;;;;28.40;6.20;;;9.10;85.20;;;;;;5031593;28;20501;-75
2023/04/11 01:35:13;;;;;;;34.38;6.28;;;9.10;85.10;;;;;;5028095;28;20112;-75
2023/04/11 01:37:38;;;;;;;28.70;6.05;;;9.00;85.10;;;;;;5033211;28;20038;-74
2023/04/11 01:40:06;;;;;;;29.20;5.75;;;9.10;85.00;;;;;;5029619;28;20037;-75
2023/04/11 01:42:32;;;;;;;29.13;5.85;;;9.10;84.70;;;;;;5030448;28;20038;-75
2023/04/11 01:44:59;;;;;;;30.98;5.90;;;9.10;84.60;;;;;;5027206;28;20025;-74
2023/04/11 01:47:25;;;;;;;32.83;6.05;;;9.00;84.50;;;;;;5032913;28;20034;-78
2023/04/11 01:49:52;;;;;;;26.33;6.00;;;9.10;84.20;;;;;;5022480;28;20493;-74
2023/04/11 01:52:18;;;;;;;23.33;5.57;;;9.10;83.90;;;;;;5023675;28;20120;-74
2023/04/11 01:54:44;;;;;;;29.77;5.47;;;9.00;83.90;;;;;;5017963;28;20140;-74
2023/04/11 01:57:09;;;;;;;23.23;4.78;;;9.00;83.70;;;;;;5021375;28;20096;-75
2023/04/11 01:59:35;;;;;;;30.27;5.63;;;9.00;83.60;;;;;;5022056;28;20041;-74
2023/04/11 02:02:04;;;;;;;26.45;5.82;;;9.00;83.50;;;;;;5026873;28;20034;-75
2023/04/11 02:04:30;;;;;;;26.85;5.38;;;9.00;83.40;;;;;;5021953;28;20025;-74
2023/04/11 02:06:55;;;;;;;25.58;5.15;;;8.90;83.20;;;;;;5028501;28;20061;-75
2023/04/11 02:09:21;;;;;;;26.67;4.95;;;8.90;82.80;;;;;;5041260;28;20041;-75
2023/04/11 02:11:47;;;;;;;21.63;5.60;;;9.00;82.40;;;;;;5019472;28;20067;-75
2023/04/11 02:14:17;;;;;;;26.65;4.55;;;9.00;82.50;;;;;;5030588;28;20025;-74
2023/04/11 02:16:53;;;;;;;28.35;5.63;;;9.00;82.60;;;;;;5024657;28;20070;-75
2023/04/11 02:19:24;;;;;;;21.63;4.53;;;8.90;82.40;;;;;;5028572;28;20017;-75
2023/04/11 02:21:50;;;;;;;26.83;6.07;;;8.90;82.70;;;;;;5023942;28;20033;-75
2023/04/11 02:24:16;;;;;;;26.10;5.88;;;8.90;82.70;;;;;;5024913;28;20378;-75
2023/04/11 02:26:41;;;;;;;26.45;4.65;;;8.90;82.70;;;;;;5027390;28;20549;-75
2023/04/11 02:29:07;;;;;;;28.45;5.20;;;8.80;82.70;;;;;;5025571;28;20063;-74
2023/04/11 02:31:34;;;;;;;26.05;6.15;;;8.80;82.80;;;;;;5027004;28;20039;-74
2023/04/11 02:34:00;;;;;;;28.20;5.65;;;8.80;82.50;;;;;;5025552;28;20018;-74
2023/04/11 02:36:27;;;;;;;26.48;5.72;;;8.80;82.50;;;;;;5032123;28;20052;-75
2023/04/11 02:38:53;;;;;;;21.92;4.75;;;8.70;82.50;;;;;;5032149;28;20486;-74
2023/04/11 02:41:18;;;;;;;29.25;5.28;;;8.70;82.60;;;;;;5024471;28;20038;-75
2023/04/11 02:43:44;;;;;;;20.80;5.68;;;8.70;82.60;;;;;;5042001;28;20458;-74
2023/04/11 02:46:10;;;;;;;24.92;6.40;;;8.70;82.60;;;;;;5032755;28;20041;-75
2023/04/11 02:48:36;;;;;;;27.67;8.35;;;8.70;82.60;;;;;;5027563;28;20029;-75
2023/04/11 02:51:01;;;;;;;28.92;7.40;;;8.70;82.50;;;;;;5033878;28;20030;-75
2023/04/11 02:53:27;;;;;;;30.15;8.65;;;8.70;82.70;;;;;;5026160;28;20461;-74
2023/04/11 02:55:53;;;;;;;35.30;10.77;;;8.60;82.80;;;;;;5021597;28;20022;-74
2023/04/11 02:58:24;;;;;;;26.55;9.55;;;8.60;82.80;;;;;;5015891;28;20053;-74
2023/04/11 03:00:50;;;;;;;23.20;8.80;;;8.60;83.00;;;;;;5018715;28;20026;-75
2023/04/11 03:03:16;;;;;;;29.70;8.02;;;8.60;83.20;;;;;;5022341;28;20135;-75
2023/04/11 03:05:42;;;;;;;30.77;6.38;;;8.60;83.40;;;;;;5022996;28;20386;-74
2023/04/11 03:08:10;;;;;;;28.83;6.13;;;8.60;83.50;;;;;;5024844;28;20032;-74
2023/04/11 03:10:35;;;;;;;25.85;5.63;;;8.60;83.60;;;;;;5021989;28;20065;-75
2023/04/11 03:13:01;;;;;;;23.75;6.68;;;8.60;83.70;;;;;;5027523;28;20092;-75
2023/04/11 03:15:27;;;;;;;26.42;6.53;;;8.60;83.60;;;;;;5028168;28;20253;-76
2023/04/11 03:17:53;;;;;;;23.15;6.22;;;8.50;83.70;;;;;;5022930;28;20057;-76
2023/04/11 03:20:19;;;;;;;31.23;7.03;;;8.50;83.80;;;;;;5025678;28;20040;-76
2023/04/11 03:22:45;;;;;;;24.15;6.47;;;8.50;83.60;;;;;;5020962;28;20037;-76
2023/04/11 03:25:11;;;;;;;23.42;6.45;;;8.50;83.70;;;;;;5026137;28;20048;-76
2023/04/11 03:27:36;;;;;;;28.67;6.50;;;8.50;83.60;;;;;;5021155;28;20564;-75
2023/04/11 03:30:02;;;;;;;22.52;5.63;;;8.50;83.70;;;;;;5023962;28;20467;-76
2023/04/11 03:32:28;;;;;;;27.63;5.38;;;8.40;83.60;;;;;;5026444;28;20053;-76
2023/04/11 03:34:54;;;;;;;28.10;5.55;;;8.40;83.80;;;;;;5021214;28;20022;-75
2023/04/11 03:37:20;;;;;;;21.98;5.22;;;8.40;83.70;;;;;;5028768;28;20426;-75
2023/04/11 03:39:45;;;;;;;23.35;5.28;;;8.40;83.60;;;;;;5025919;28;20355;-77
2023/04/11 03:42:11;;;;;;;27.13;6.45;;;8.40;83.40;;;;;;5023907;28;20398;-74
2023/04/11 03:44:37;;;;;;;28.92;6.28;;;8.40;83.40;;;;;;5027951;28;20045;-73
2023/04/11 03:47:03;;;;;;;25.42;9.05;;;8.30;83.10;;;;;;5029641;28;20041;-75
2023/04/11 03:49:28;;;;;;;25.08;8.98;;;8.30;83.20;;;;;;5029427;28;20032;-74
2023/04/11 03:51:54;;;;;;;24.23;9.68;;;8.30;83.00;;;;;;5034143;28;20040;-74
2023/04/11 03:54:20;;;;;;;27.70;8.73;;;8.30;82.90;;;;;;5027729;28;20113;-73
2023/04/11 03:56:46;;;;;;;21.70;7.00;;;8.30;82.80;;;;;;5027562;28;20409;-75
2023/04/11 03:59:11;;;;;;;23.45;6.35;;;8.30;82.70;;;;;;5032537;28;20038;-74
2023/04/11 04:01:38;;;;;;;18.17;5.70;;;8.20;82.80;;;;;;5029449;28;20038;-73
2023/04/11 04:04:04;;;;;;;17.88;4.53;;;8.20;82.80;;;;;;5032454;28;20025;-75
2023/04/11 04:06:30;;;;;;;26.67;5.15;;;8.20;82.70;;;;;;5028294;28;20044;-74
2023/04/11 04:08:55;;;;;;;16.75;3.85;;;8.20;82.60;;;;;;5026300;28;20478;-74
2023/04/11 04:11:21;;;;;;;21.27;5.15;;;8.20;82.50;;;;;;5034216;28;20046;-75
2023/04/11 04:13:47;;;;;;;24.98;5.28;;;8.10;82.60;;;;;;5031888;28;20032;-74
2023/04/11 04:16:12;;;;;;;19.02;5.55;;;8.10;82.70;;;;;;5021437;28;20033;-74
2023/04/11 04:18:38;;;;;;;22.13;4.72;;;8.10;82.60;;;;;;5034057;28;20455;-74
2023/04/11 04:21:06;;;;;;;14.25;3.38;;;8.10;82.60;;;;;;5034473;28;20041;-74
2023/04/11 04:23:31;;;;;;;23.60;3.75;;;8.10;82.60;;;;;;5033361;28;20021;-74
2023/04/11 04:26:00;;;;;;;21.38;5.82;;;8.10;82.50;;;;;;5028945;28;20037;-74
2023/04/11 04:28:27;;;;;;;19.90;4.40;;;8.10;82.60;;;;;;5027740;28;20029;-75
2023/04/11 04:30:53;;;;;;;15.00;3.88;;;8.10;82.60;;;;;;5030398;28;20033;-75
2023/04/11 04:33:20;;;;;;;21.35;4.93;;;8.00;82.50;;;;;;5026558;28;20039;-75
2023/04/11 04:35:46;;;;;;;15.35;4.65;;;8.10;82.50;;;;;;5027653;28;20022;-75
2023/04/11 04:38:16;;;;;;;16.58;4.07;;;8.00;82.50;;;;;;5024376;28;20359;-74
2023/04/11 04:40:45;;;;;;;16.48;4.20;;;8.00;82.50;;;;;;5031585;28;20071;-74
2023/04/11 04:43:16;;;;;;;23.63;5.22;;;8.00;82.50;;;;;;5035178;28;20493;-75
2023/04/11 04:45:45;;;;;;;20.83;4.78;;;7.90;82.70;;;;;;5037292;28;20120;-73
2023/04/11 04:48:16;;;;;;;16.00;4.13;;;7.90;82.70;;;;;;5033554;28;20117;-75
2023/04/11 04:50:42;;;;;;;16.05;3.90;;;7.90;82.60;;;;;;5021954;28;20462;-75
2023/04/11 04:53:08;;;;;;;14.63;3.90;;;7.90;82.50;;;;;;5029778;28;20378;-75
2023/04/11 04:55:34;;;;;;;20.23;5.47;;;7.90;82.50;;;;;;5028630;28;20037;-74
2023/04/11 04:58:00;;;;;;;15.43;4.22;;;7.80;82.70;;;;;;5034781;28;20505;-74
2023/04/11 05:00:25;;;;;;;17.30;4.47;;;7.80;82.70;;;;;;5018073;28;20028;-75
2023/04/11 05:02:53;;;;;;;19.80;4.28;;;7.90;82.80;;;;;;5027217;28;20436;-75
2023/04/11 05:05:19;;;;;;;22.13;4.85;;;7.80;82.80;;;;;;5028039;28;20105;-74
2023/04/11 05:07:45;;;;;;;13.77;3.80;;;7.80;82.70;;;;;;5024043;28;20034;-74
2023/04/11 05:10:11;;;;;;;20.85;4.45;;;7.80;82.80;;;;;;5025226;28;20033;-79
2023/04/11 05:12:36;;;;;;;19.48;4.43;;;7.80;82.90;;;;;;5022753;28;20053;-77
2023/04/11 05:15:02;;;;;;;17.80;3.78;;;7.80;83.00;;;;;;5030445;28;20033;-78
2023/04/11 05:17:28;;;;;;;17.48;4.00;;;7.90;82.90;;;;;;5029337;28;20038;-77
2023/04/11 05:19:54;;;;;;;17.60;4.35;;;7.90;82.80;;;;;;5026370;28;20017;-77
2023/04/11 05:22:20;;;;;;;18.48;4.15;;;7.90;82.80;;;;;;5024606;28;20079;-78
2023/04/11 05:24:45;;;;;;;19.38;4.13;;;7.90;82.70;;;;;;5029079;28;20029;-78
2023/04/11 05:27:12;;;;;;;18.77;4.20;;;8.00;82.60;;;;;;5029536;28;20068;-78
2023/04/11 05:29:38;;;;;;;16.10;3.83;;;8.00;82.70;;;;;;5020787;28;20021;-77
2023/04/11 05:32:04;;;;;;;18.05;3.65;;;8.00;82.70;;;;;;5029168;28;20489;-77
2023/04/11 05:34:31;;;;;;;20.02;4.07;;;8.10;82.50;;;;;;5025396;28;20030;-79
2023/04/11 05:36:57;;;;;;;18.25;3.92;;;8.10;82.50;;;;;;5024292;28;20037;-78
2023/04/11 05:39:23;;;;;;;20.92;5.55;;;8.00;82.70;;;;;;5027548;28;20017;-79
2023/04/11 05:41:49;;;;;;;18.67;3.20;;;8.00;82.90;;;;;;5038975;28;20029;-79
2023/04/11 05:44:14;;;;;;;16.83;3.65;;;8.10;82.80;;;;;;5026079;28;20017;-78
2023/04/11 05:46:40;;;;;;;24.17;3.92;;;8.10;82.80;;;;;;5034356;28;20518;-79
2023/04/11 05:49:06;;;;;;;17.60;3.40;;;8.10;82.80;;;;;;5026391;28;20026;-79
2023/04/11 05:51:32;;;;;;;15.70;3.50;;;8.10;83.00;;;;;;5027934;28;20041;-78
2023/04/11 05:53:57;;;;;;;17.35;3.47;;;8.10;82.90;;;;;;5020880;28;20554;-79
2023/04/11 05:56:23;;;;;;;18.98;3.95;;;8.20;82.80;;;;;;5021181;28;20034;-78
2023/04/11 05:58:49;;;;;;;17.35;3.80;;;8.20;82.80;;;;;;5029776;28;20079;-78
2023/04/11 06:01:17;;;;;;;14.52;3.47;;;8.20;82.80;;;;;;5031414;28;20083;-78
2023/04/11 06:03:46;;;;;;;14.52;3.60;;;8.20;82.90;;;;;;5036872;28;20021;-79
2023/04/11 06:06:13;;;;;;;16.50;3.80;;;8.30;82.80;;;;;;5036758;28;20136;-78
2023/04/11 06:08:38;;;;;;;20.10;3.78;;;8.30;82.70;;;;;;5031869;28;20470;-77
2023/04/11 06:11:04;;;;;;;18.73;4.32;;;8.30;82.60;;;;;;5027117;28;20084;-79
2023/04/11 06:13:30;;;;;;;20.25;3.75;;;8.40;82.50;;;;;;5021475;28;20548;-78
2023/04/11 06:15:55;;;;;;;21.48;3.53;;;8.50;82.30;;;;;;5032107;28;20049;-78
2023/04/11 06:18:21;;;;;;;13.95;3.95;;;8.40;82.50;;;;;;5035351;28;20385;-78
2023/04/11 06:20:48;;;;;;;17.98;3.80;;;8.40;82.80;;;;;;5027120;28;20101;-79
2023/04/11 06:23:14;;;;;;;15.75;2.80;;;8.50;82.40;;;;;;5037266;28;20073;-78
2023/04/11 06:25:40;;;;;;;17.20;4.07;;;8.60;82.50;;;;;;5026872;28;20120;-79
2023/04/11 06:28:06;;;;;;;14.35;3.42;;;8.60;82.30;;;;;;5029690;28;20510;-78
2023/04/11 06:30:31;;;;;;;16.17;3.55;;;8.70;82.40;;;;;;5020744;28;20068;-78
2023/04/11 06:32:57;;;;;;;17.02;4.10;;;8.70;82.10;;;;;;5027766;28;20068;-78
2023/04/11 06:35:23;;;;;;;17.33;4.55;;;8.80;81.80;;;;;;5023181;28;20068;-77
2023/04/11 06:37:51;;;;;;;19.60;3.42;;;8.80;82.10;;;;;;5023998;28;20083;-77
2023/04/11 06:40:19;;;;;;;18.02;3.88;;;8.90;81.70;;;;;;5029072;28;20079;-78
2023/04/11 06:42:45;;;;;;;21.50;4.20;;;9.00;81.60;;;;;;5028570;28;20033;-78
2023/04/11 06:45:11;;;;;;;17.65;3.80;;;9.10;81.30;;;;;;5030105;28;20032;-78
2023/04/11 06:47:37;;;;;;;16.35;3.75;;;9.10;81.50;;;;;;5022080;28;20045;-77
2023/04/11 06:50:03;;;;;;;17.05;4.05;;;9.10;81.60;;;;;;5024850;28;20026;-78
2023/04/11 06:52:29;;;;;;;21.23;4.05;;;9.20;81.20;;;;;;5019827;28;20034;-77
2023/04/11 06:54:55;;;;;;;16.70;3.70;;;9.30;80.60;;;;;;5027943;28;20039;-76
2023/04/11 06:57:21;;;;;;;17.20;3.75;;;9.40;80.50;;;;;;5021722;28;20041;-77
2023/04/11 06:59:46;;;;;;;16.42;4.05;;;9.50;80.60;;;;;;5022014;28;20176;-76
2023/04/11 07:02:13;;;;;;;19.27;3.80;;;9.60;80.50;;;;;;5025129;28;20025;-77
2023/04/11 07:04:38;;;;;;;19.98;4.28;;;9.70;80.30;;;;;;5018535;28;20115;-76
2023/04/11 07:07:04;;;;;;;15.40;3.45;;;9.90;79.90;;;;;;5020769;28;20482;-77
2023/04/11 07:09:30;;;;;;;19.75;4.97;;;10.00;79.40;;;;;;5023944;28;20535;-79
2023/04/11 07:11:56;;;;;;;14.05;3.75;;;10.10;78.70;;;;;;5039260;28;20061;-78
2023/04/11 07:14:22;;;;;;;23.10;4.80;;;10.20;78.70;;;;;;5020687;28;20470;-76
2023/04/11 07:16:47;;;;;;;16.92;4.00;;;10.30;78.70;;;;;;5021146;28;20026;-76
2023/04/11 07:19:13;;;;;;;19.08;4.65;;;10.30;77.70;;;;;;5020182;28;20174;-77
2023/04/11 07:21:39;;;;;;;21.77;4.07;;;10.30;77.80;;;;;;5025329;28;20045;-76
2023/04/11 07:24:09;;;;;;;19.27;4.32;;;10.50;77.40;;;;;;5025423;28;20038;-76
2023/04/11 07:26:37;;;;;;;21.70;5.00;;;10.70;77.00;;;;;;5025613;28;20541;-76
2023/04/11 07:29:03;;;;;;;14.75;4.00;;;10.80;76.70;;;;;;5025591;28;20048;-77
2023/04/11 07:31:29;;;;;;;18.67;4.53;;;10.90;75.90;;;;;;5026356;28;20042;-78
2023/04/11 07:33:55;;;;;;;18.98;3.92;;;10.90;74.30;;;;;;5022028;28;20034;-77
2023/04/11 07:36:21;;;;;;;17.33;3.83;;;11.10;74.40;;;;;;5024207;28;20064;-77
2023/04/11 07:38:46;;;;;;;20.08;3.75;;;11.20;73.60;;;;;;5023211;28;20037;-77
2023/04/11 07:41:12;;;;;;;14.88;3.70;;;11.20;72.50;;;;;;5022589;28;20033;-76
2023/04/11 07:43:38;;;;;;;14.00;3.85;;;11.20;72.40;;;;;;5024605;28;20077;-77
2023/04/11 07:46:04;;;;;;;16.85;3.95;;;11.10;71.10;;;;;;5025549;28;20037;-77
2023/04/11 07:48:30;;;;;;;15.32;3.70;;;11.10;72.50;;;;;;5034986;28;20036;-75
2023/04/11 07:50:56;;;;;;;22.25;4.45;;;11.20;72.10;;;;;;5018302;28;20041;-76
2023/04/11 07:53:22;;;;;;;17.48;4.63;;;11.40;71.80;;;;;;5031451;28;20037;-79
2023/04/11 07:55:48;;;;;;;16.40;4.68;;;11.60;72.40;;;;;;5019606;28;20090;-78
2023/04/11 07:58:14;;;;;;;16.85;4.60;;;11.80;71.20;;;;;;5033065;28;20544;-78
2023/04/11 08:00:39;;;;;;;15.52;3.92;;;12.00;71.70;;;;;;5042173;28;20120;-77
2023/04/11 08:03:09;;;;;;;14.80;3.58;;;12.20;70.00;;;;;;5028027;28;20121;-76
2023/04/11 08:05:36;;;;;;;15.70;3.78;;;12.00;68.70;;;;;;5028967;28;20033;-77
2023/04/11 08:08:03;;;;;;;16.52;3.47;;;12.20;69.50;;;;;;5023183;28;20037;-78
2023/04/11 08:10:29;;;;;;;12.57;3.45;;;12.20;68.20;;;;;;5025005;28;20322;-76
2023/04/11 08:12:55;;;;;;;14.68;4.18;;;12.30;67.20;;;;;;5027889;28;20474;-77
2023/04/11 08:15:21;;;;;;;16.88;3.15;;;12.40;68.20;;;;;;5029607;28;20037;-78
2023/04/11 08:17:48;;;;;;;14.95;3.08;;;12.30;68.00;;;;;;5024279;28;20103;-77
2023/04/11 08:20:15;;;;;;;10.30;3.05;;;12.40;68.50;;;;;;5025981;28;20025;-78
2023/04/11 08:22:43;;;;;;;15.40;3.55;;;12.60;68.60;;;;;;5023492;28;20122;-77
2023/04/11 08:25:10;;;;;;;17.13;3.08;;;12.80;68.30;;;;;;5025985;28;20087;-78
2023/04/11 08:27:36;;;;;;;13.45;3.22;;;13.00;66.90;;;;;;5023802;28;20443;-77
2023/04/11 08:30:03;;;;;;;12.80;3.35;;;13.10;67.10;;;;;;5018375;28;20049;-78
2023/04/11 08:32:29;;;;;;;13.55;3.92;;;13.00;65.70;;;;;;5019600;28;20120;-78
2023/04/11 08:34:55;;;;;;;16.80;3.55;;;13.20;65.90;;;;;;5025203;28;20160;-78
2023/04/11 08:37:20;;;;;;;14.80;3.50;;;13.10;64.60;;;;;;5024461;28;20034;-78
2023/04/11 08:39:46;;;;;;;11.85;3.28;;;13.10;64.60;;;;;;5012210;28;20034;-79
2023/04/11 08:42:29;;;;;;;13.02;3.25;;;12.70;64.90;;;;;;5018232;28;20038;-77
2023/04/11 08:44:57;;;;;;;14.65;3.58;;;13.00;65.20;;;;;;5022308;28;20462;-78
2023/04/11 08:47:24;;;;;;;14.70;3.67;;;13.10;63.40;;;;;;5026265;28;20045;-80
2023/04/11 08:49:50;;;;;;;14.25;3.40;;;12.60;64.50;;;;;;5035667;28;20021;-78
2023/04/11 08:52:20;;;;;;;13.77;3.20;;;12.40;65.10;;;;;;5018409;28;20034;-77
2023/04/11 08:54:47;;;;;;;14.70;3.03;;;12.80;66.00;;;;;;5023741;28;20022;-78
2023/04/11 08:57:24;;;;;;;18.10;3.65;;;13.10;63.50;;;;;;5025103;28;20113;-78
2023/04/11 08:59:54;;;;;;;14.85;3.30;;;13.10;64.30;;;;;;5024347;28;20041;-79
2023/04/11 09:02:20;;;;;;;13.25;3.20;;;13.30;62.70;;;;;;5026087;28;20032;-79
2023/04/11 09:04:46;;;;;;;15.50;3.60;;;13.30;62.70;;;;;;5026666;28;20105;-78
2023/04/11 09:07:14;;;;;;;14.02;3.20;;;13.70;61.90;;;;;;5027219;28;20117;-78
2023/04/11 09:09:40;;;;;;;13.55;3.13;;;13.60;61.50;;;;;;5026174;28;20040;-78
2023/04/11 09:12:05;;;;;;;12.15;2.63;;;13.70;59.60;;;;;;5023416;28;20397;-78
2023/04/11 09:14:31;;;;;;;12.35;2.72;;;13.40;58.40;;;;;;5022973;28;20033;-78
2023/04/11 09:17:05;;;;;;;13.48;3.33;;;13.40;61.50;;;;;;5023886;28;20034;-78
2023/04/11 09:19:33;;;;;;;14.10;3.00;;;13.60;61.80;;;;;;5023023;28;20063;-77
2023/04/11 09:22:05;;;;;;;16.88;3.60;;;13.60;62.10;;;;;;5027046;28;20033;-78
2023/04/11 09:24:31;;;;;;;16.52;3.42;;;13.80;60.00;;;;;;5025660;28;20037;-78
2023/04/11 09:27:18;;;;;;;15.45;3.53;;;13.50;59.80;;;;;;5031194;28;20386;-80
2023/04/11 09:29:45;;;;;;;12.35;2.70;;;13.50;60.30;;;;;;5031548;28;20390;-79
2023/04/11 09:32:34;;;;;;;17.63;3.78;;;13.30;60.60;;;;;;5020575;28;20033;-79
2023/04/11 09:35:17;;;;;;;12.13;2.90;;;13.80;60.30;;;;;;5022850;28;20056;-79
2023/04/11 09:37:48;;;;;;;12.65;2.58;;;14.20;57.70;;;;;;5024296;28;20042;-78
2023/04/11 09:40:15;;;;;;;12.95;2.90;;;14.30;54.40;;;;;;5024214;28;20075;-79
2023/04/11 09:42:42;;;;;;;15.32;3.10;;;13.70;56.60;;;;;;5023503;28;20053;-78
2023/04/11 09:45:17;;;;;;;15.50;3.42;;;13.80;57.00;;;;;;5031156;28;20094;-78
2023/04/11 09:47:44;;;;;;;17.23;3.40;;;14.10;57.70;;;;;;5030235;28;20045;-78
2023/04/11 09:50:10;;;;;;;16.90;3.40;;;14.40;55.70;;;;;;5024007;28;20512;-78
2023/04/11 09:52:38;;;;;;;19.42;3.10;;;14.40;55.70;;;;;;5030046;28;20038;-78
2023/04/11 09:55:06;;;;;;;16.52;3.20;;;14.20;56.40;;;;;;5032506;28;20029;-79
2023/04/11 09:57:33;;;;;;;12.60;2.70;;;14.30;54.90;;;;;;5032399;28;20041;-78
2023/04/11 10:00:13;;;;;;;11.68;2.78;;;14.80;54.00;;;;;;5028794;28;20045;-77
2023/04/11 10:02:39;;;;;;;13.00;2.60;;;15.00;52.50;;;;;;5025742;28;20102;-77
2023/04/11 10:05:06;;;;;;;13.95;3.33;;;15.30;52.60;;;;;;5025349;28;20389;-78
2023/04/11 10:07:34;;;;;;;12.93;2.78;;;15.40;54.70;;;;;;5024125;28;20428;-78
2023/04/11 10:10:01;;;;;;;13.40;2.60;;;15.10;50.90;;;;;;5028542;28;20017;-78
2023/04/11 10:12:30;;;;;;;11.52;2.95;;;14.80;52.20;;;;;;5023592;28;20115;-79
2023/04/11 10:14:56;;;;;;;13.80;2.60;;;15.00;53.20;;;;;;5020824;28;20048;-77
2023/04/11 10:17:23;;;;;;;13.50;3.25;;;15.20;52.00;;;;;;5023682;28;20037;-78
2023/04/11 10:19:53;;;;;;;12.90;2.75;;;15.60;51.30;;;;;;5024934;28;20022;-78
2023/04/11 10:22:40;;;;;;;10.70;2.50;;;15.90;49.60;;;;;;5022699;28;20049;-78
2023/04/11 10:25:22;;;;;;;16.00;3.53;;;15.90;49.40;;;;;;5021976;28;20091;-79
2023/04/11 10:27:49;;;;;;;13.05;3.05;;;15.50;50.30;;;;;;5024176;28;20385;-79
2023/04/11 10:30:15;;;;;;;12.98;2.92;;;14.70;51.90;;;;;;5026082;28;20021;-79
2023/04/11 10:33:11;;;;;;;16.02;3.55;;;14.10;53.50;;;;;;5021867;28;20030;-79
2023/04/11 10:36:09;;;;;;;15.52;3.33;;;13.90;54.40;;;;;;5025241;28;20109;-79
2023/04/11 10:38:47;;;;;;;11.68;2.55;;;14.20;54.60;;;;;;5026944;28;20092;-78
2023/04/11 10:41:21;;;;;;;12.32;2.75;;;14.20;53.50;;;;;;5020220;28;20398;-80
2023/04/11 10:43:48;;;;;;;11.48;2.45;;;14.60;52.60;;;;;;5026018;28;20038;-80
2023/04/11 10:46:21;;;;;;;10.48;2.08;;;15.10;49.10;;;;;;5020367;28;20041;-82
2023/04/11 10:49:02;;;;;;;9.57;2.50;;;15.60;48.20;;;;;;5020272;28;20129;-80
2023/04/11 10:51:30;;;;;;;10.38;2.40;;;15.50;47.40;;;;;;5022517;28;20393;-78
2023/04/11 10:53:58;;;;;;;10.32;2.50;;;15.70;48.40;;;;;;5023092;28;20025;-78
2023/04/11 10:56:44;;;;;;;11.88;2.70;;;15.30;47.60;;;;;;5035544;28;20061;-78
2023/04/11 10:59:33;;;;;;;12.18;2.85;;;15.10;47.20;;;;;;5020055;28;20056;-78
2023/04/11 11:02:00;;;;;;;9.30;2.22;;;15.10;48.40;;;;;;5029148;28;20045;-78
2023/04/11 11:04:33;;;;;;;11.80;2.97;;;14.70;49.90;;;;;;5022538;28;20099;-79
2023/04/11 11:07:04;;;;;;;8.48;2.38;;;14.60;50.40;;;;;;5023904;28;20057;-78
2023/04/11 11:09:30;;;;;;;10.65;2.97;;;14.60;50.20;;;;;;5027653;28;20087;-77
2023/04/11 11:12:10;;;;;;;9.85;2.58;;;14.10;51.00;;;;;;5019964;28;20034;-78
2023/04/11 11:14:36;;;;;;;13.27;2.97;;;13.80;50.00;;;;;;5024890;28;20837;-79
2023/04/11 11:17:03;;;;;;;10.60;2.30;;;13.80;51.60;;;;;;5026742;28;20036;-78
2023/04/11 11:19:30;;;;;;;8.85;2.53;;;14.00;51.70;;;;;;5021485;28;20374;-79
2023/04/11 11:21:58;;;;;;;14.27;2.70;;;13.80;51.40;;;;;;5027160;28;20026;-78
2023/04/11 11:24:25;;;;;;;9.07;2.40;;;13.60;53.20;;;;;;5024890;28;20030;-79
2023/04/11 11:26:52;;;;;;;7.78;1.92;;;13.60;54.00;;;;;;5029218;28;20436;-78
2023/04/11 11:29:30;;;;;;;11.85;2.75;;;13.90;52.40;;;;;;5026202;28;20030;-79
2023/04/11 11:31:56;;;;;;;12.20;2.92;;;14.00;52.20;;;;;;5024999;28;20037;-78
2023/04/11 11:34:32;;;;;;;11.00;2.47;;;14.20;53.30;;;;;;5018133;28;20037;-79
2023/04/11 11:37:00;;;;;;;13.05;2.72;;;14.40;52.80;;;;;;5027976;28;20064;-78
2023/04/11 11:39:27;;;;;;;9.20;2.80;;;14.60;51.80;;;;;;5022670;28;20028;-81
2023/04/11 11:41:54;;;;;;;10.63;2.75;;;14.90;53.00;;;;;;5027884;28;20485;-81
2023/04/11 11:44:25;;;;;;;11.65;2.60;;;14.70;50.90;;;;;;5028688;28;20021;-79
2023/04/11 11:47:05;;;;;;;8.40;2.45;;;14.60;51.60;;;;;;5021585;28;20395;-79
2023/04/11 11:49:51;;;;;;;10.15;2.83;;;14.50;51.40;;;;;;5009914;28;20022;-79
2023/04/11 11:52:40;;;;;;;9.63;2.35;;;14.60;51.60;;;;;;5008216;28;20175;-80
2023/04/11 11:55:18;;;;;;;12.60;3.00;;;15.00;50.80;;;;;;5023101;28;20377;-79
2023/04/11 11:57:45;;;;;;;15.23;2.47;;;14.90;51.10;;;;;;5031650;28;20037;-79
2023/04/11 12:00:12;;;;;;;10.38;2.65;;;14.90;51.40;;;;;;5027979;28;20494;-79
2023/04/11 12:02:39;;;;;;;9.45;2.55;;;14.80;51.50;;;;;;5034366;28;20029;-80
2023/04/11 12:05:05;;;;;;;14.43;2.72;;;14.90;52.70;;;;;;5027830;28;20091;-81
2023/04/11 12:07:32;;;;;;;14.90;3.05;;;15.40;51.70;;;;;;5025362;28;20513;-80
2023/04/11 12:10:01;;;;;;;9.30;1.85;;;15.70;50.40;;;;;;5028857;28;20120;-81
2023/04/11 12:12:37;;;;;;;9.93;2.00;;;15.70;46.90;;;;;;5033090;28;20064;-79
2023/04/11 12:15:13;;;;;;;7.88;2.00;;;15.40;47.70;;;;;;5020517;28;20385;-78
2023/04/11 12:17:39;;;;;;;9.40;2.35;;;15.10;47.30;;;;;;5027746;28;20041;-79
2023/04/11 12:20:09;;;;;;;7.70;2.17;;;15.50;47.50;;;;;;5022315;28;20389;-78
2023/04/11 12:22:38;;;;;;;6.38;1.80;;;15.90;44.40;;;;;;5020949;28;20045;-78
2023/04/11 12:25:12;;;;;;;7.57;1.90;;;15.80;44.40;;;;;;5020761;28;20183;-80
2023/04/11 12:27:41;;;;;;;6.68;2.00;;;15.50;45.40;;;;;;5021782;28;20037;-80
2023/04/11 12:30:09;;;;;;;6.90;1.70;;;15.30;46.40;;;;;;5025252;28;20125;-79
2023/04/11 12:32:35;;;;;;;11.77;2.38;;;15.20;47.70;;;;;;5028591;28;20042;-79
2023/04/11 12:35:02;;;;;;;9.82;2.10;;;15.40;48.80;;;;;;5031802;28;20032;-79
2023/04/11 12:37:28;;;;;;;8.88;2.47;;;15.70;48.30;;;;;;5030577;28;20237;-79
2023/04/11 12:39:53;;;;;;;8.65;2.47;;;16.00;49.00;;;;;;5030025;28;20033;-80
2023/04/11 12:42:19;;;;;;;9.35;1.95;;;15.80;45.40;;;;;;5029970;28;20041;-79
2023/04/11 12:44:46;;;;;;;9.63;2.10;;;16.20;46.60;;;;;;5026194;28;20033;-80
2023/04/11 12:47:12;;;;;;;12.05;2.55;;;16.10;46.30;;;;;;5034200;28;20121;-80